createdAt,value
2019-05-03T00:02:25.959Z,10.70
2019-05-03T00:05:16.042Z,10.18
2019-05-03T00:07:49.375Z,8.78
2019-05-03T00:10:22.460Z,9.48
2019-05-03T00:12:55.302Z,11.80
2019-05-03T00:15:46.607Z,10.75
2019-05-03T00:18:22.005Z,11.05
2019-05-03T00:20:55.697Z,11.83
2019-05-03T00:23:29.630Z,11.10
2019-05-03T00:26:03.120Z,11.83
2019-05-03T00:28:36.072Z,10.75
2019-05-03T00:31:09.860Z,10.75
2019-05-03T00:33:45.193Z,9.75
2019-05-03T00:36:22.563Z,10.00
2019-05-03T00:38:58.034Z,9.53
2019-05-03T00:41:31.997Z,8.68
2019-05-03T00:44:04.410Z,9.58
2019-05-03T00:46:38.324Z,9.50
2019-05-03T00:49:12.014Z,9.83
2019-05-03T00:51:45.823Z,10.72
2019-05-03T00:54:19.598Z,10.95
2019-05-03T00:56:53.652Z,11.15
2019-05-03T00:59:29.056Z,9.95
2019-05-03T01:02:03.131Z,9.18
2019-05-03T01:04:36.947Z,10.55
2019-05-03T01:07:11.718Z,11.40
2019-05-03T01:09:44.761Z,11.40
2019-05-03T01:12:18.514Z,12.03
2019-05-03T01:14:52.182Z,11.83
2019-05-03T01:17:25.873Z,11.73
2019-05-03T01:19:59.924Z,12.35
2019-05-03T01:22:33.352Z,11.70
2019-05-03T01:25:07.404Z,11.68
2019-05-03T01:27:43.115Z,11.60
2019-05-03T01:30:16.929Z,12.85
2019-05-03T01:32:49.821Z,11.68
2019-05-03T01:35:22.591Z,11.20
2019-05-03T01:37:57.939Z,11.43
2019-05-03T01:40:32.594Z,11.03
2019-05-03T01:43:05.881Z,10.82
2019-05-03T01:45:39.647Z,11.35
2019-05-03T01:48:21.707Z,10.95
2019-05-03T01:51:13.775Z,10.30
2019-05-03T01:53:46.431Z,10.55
2019-05-03T01:56:19.425Z,10.80
2019-05-03T01:58:53.524Z,10.23
2019-05-03T02:01:35.848Z,10.35
2019-05-03T02:04:14.051Z,9.20
2019-05-03T02:06:46.678Z,9.15
2019-05-03T02:09:21.337Z,10.10
2019-05-03T02:11:53.429Z,9.78
2019-05-03T02:14:27.255Z,10.58
2019-05-03T02:17:01.661Z,10.25
2019-05-03T02:19:35.767Z,9.43
2019-05-03T02:22:08.599Z,9.95
2019-05-03T02:24:42.361Z,8.48
2019-05-03T02:27:16.030Z,8.08
2019-05-03T02:29:48.774Z,9.30
2019-05-03T02:32:23.258Z,9.05
2019-05-03T02:34:57.699Z,9.15
2019-05-03T02:37:33.053Z,9.15
2019-05-03T02:40:07.272Z,9.00
2019-05-03T02:42:40.611Z,8.55
2019-05-03T02:45:15.918Z,9.60
2019-05-03T02:47:57.831Z,8.48
2019-05-03T02:50:30.466Z,8.98
2019-05-03T02:53:05.758Z,8.70
2019-05-03T02:55:39.052Z,9.13
2019-05-03T02:58:15.711Z,8.75
2019-05-03T03:00:55.711Z,9.05
2019-05-03T03:03:30.067Z,9.53
2019-05-03T03:06:06.734Z,9.28
2019-05-03T03:08:40.674Z,8.80
2019-05-03T03:11:15.362Z,9.20
2019-05-03T03:13:48.021Z,9.55
2019-05-03T03:16:21.885Z,9.13
2019-05-03T03:18:56.473Z,8.60
2019-05-03T03:21:35.816Z,8.53
2019-05-03T03:24:17.207Z,7.95
2019-05-03T03:26:51.684Z,9.08
2019-05-03T03:29:27.717Z,9.38
2019-05-03T03:32:19.831Z,9.35
2019-05-03T03:35:03.187Z,9.45
2019-05-03T03:37:35.009Z,8.93
2019-05-03T03:40:07.925Z,9.83
2019-05-03T03:42:45.016Z,9.45
2019-05-03T03:45:17.869Z,8.83
2019-05-03T03:47:55.852Z,8.30
2019-05-03T03:50:28.631Z,9.08
2019-05-03T03:53:06.684Z,9.35
2019-05-03T03:55:45.864Z,8.47
2019-05-03T03:58:23.023Z,8.05
2019-05-03T04:00:52.367Z,8.45
2019-05-03T04:03:25.988Z,8.50
2019-05-03T04:05:59.228Z,8.65
2019-05-03T04:08:35.837Z,9.25
2019-05-03T04:11:08.428Z,8.90
2019-05-03T04:13:45.139Z,9.00
2019-05-03T04:16:25.903Z,9.28
2019-05-03T04:19:01.257Z,8.85
2019-05-03T04:21:35.829Z,9.20
2019-05-03T04:24:07.705Z,8.40
2019-05-03T04:26:41.733Z,8.63
2019-05-03T04:29:16.031Z,8.50
2019-05-03T04:31:48.908Z,8.03
2019-05-03T04:34:21.786Z,7.87
2019-05-03T04:36:55.926Z,8.00
2019-05-03T04:39:28.708Z,6.85
2019-05-03T04:42:06.297Z,7.83
2019-05-03T04:44:38.841Z,6.58
2019-05-03T04:47:11.549Z,7.95
2019-05-03T04:49:46.286Z,6.90
2019-05-03T04:52:20.919Z,7.42
2019-05-03T04:54:56.341Z,6.53
2019-05-03T04:57:40.008Z,7.72
2019-05-03T05:00:06.034Z,7.97
2019-05-03T05:02:40.477Z,8.13
2019-05-03T05:05:15.423Z,7.85
2019-05-03T05:07:48.794Z,7.20
2019-05-03T05:12:57.280Z,7.37
2019-05-03T05:15:29.015Z,7.20
2019-05-03T05:18:05.451Z,7.03
2019-05-03T05:20:37.131Z,6.75
2019-05-03T05:23:10.568Z,7.03
2019-05-03T05:25:44.693Z,7.10
2019-05-03T05:28:18.519Z,7.28
2019-05-03T05:30:54.636Z,7.03
2019-05-03T05:33:29.189Z,6.85
2019-05-03T05:36:04.723Z,7.08
2019-05-03T05:38:35.414Z,6.40
2019-05-03T05:41:07.150Z,6.90
2019-05-03T05:43:39.777Z,6.37
2019-05-03T05:46:14.508Z,6.53
2019-05-03T05:48:46.579Z,6.45
2019-05-03T05:51:18.114Z,5.60
2019-05-03T05:53:49.857Z,5.10
2019-05-03T05:56:24.944Z,4.83
2019-05-03T05:59:00.728Z,4.67
2019-05-03T06:01:36.254Z,4.97
2019-05-03T06:04:10.112Z,4.67
2019-05-03T06:06:45.014Z,4.47
2019-05-03T06:09:18.390Z,4.60
2019-05-03T06:11:52.601Z,4.40
2019-05-03T06:14:25.387Z,4.72
2019-05-03T06:16:58.256Z,5.42
2019-05-03T06:19:34.432Z,3.92
2019-05-03T06:22:08.589Z,4.53
2019-05-03T06:24:45.136Z,4.60
2019-05-03T06:27:17.551Z,4.12
2019-05-03T06:29:51.130Z,3.95
2019-05-03T06:32:25.378Z,4.08
2019-05-03T06:34:58.287Z,3.95
2019-05-03T06:37:35.419Z,5.87
2019-05-03T06:40:10.917Z,4.20
2019-05-03T06:42:52.419Z,4.53
2019-05-03T06:45:16.772Z,4.08
2019-05-03T06:47:49.995Z,4.20
2019-05-03T06:50:25.242Z,4.10
2019-05-03T06:52:54.782Z,4.28
2019-05-03T06:55:27.424Z,3.95
2019-05-03T06:58:00.080Z,4.33
2019-05-03T07:00:35.746Z,3.87
2019-05-03T07:03:08.986Z,3.70
2019-05-03T07:05:44.403Z,4.03
2019-05-03T07:08:16.837Z,4.12
2019-05-03T07:10:52.954Z,4.33
2019-05-03T07:13:25.697Z,4.28
2019-05-03T07:15:57.222Z,4.22
2019-05-03T07:18:28.687Z,4.20
2019-05-03T07:21:00.285Z,3.70
2019-05-03T07:23:34.750Z,4.17
2019-05-03T07:26:05.516Z,4.80
2019-05-03T07:28:46.840Z,4.47
2019-05-03T07:31:11.235Z,4.67
2019-05-03T07:33:44.507Z,5.60
2019-05-03T07:36:16.483Z,5.87
2019-05-03T07:38:49.189Z,6.35
2019-05-03T07:41:24.522Z,5.35
2019-05-03T07:43:55.956Z,6.60
2019-05-03T07:46:27.720Z,6.03
2019-05-03T07:49:00.259Z,5.33
2019-05-03T07:51:34.654Z,5.42
2019-05-03T07:54:05.989Z,5.17
2019-05-03T07:56:39.999Z,4.92
2019-05-03T07:59:14.895Z,5.70
2019-05-03T08:01:48.205Z,5.95
2019-05-03T08:04:20.790Z,5.58
2019-05-03T08:06:54.921Z,5.65
2019-05-03T08:09:28.074Z,6.28
2019-05-03T08:12:01.310Z,7.10
2019-05-03T08:14:35.504Z,5.95
2019-05-03T08:17:05.807Z,5.45
2019-05-03T08:19:37.232Z,5.58
2019-05-03T08:22:10.165Z,6.53
2019-05-03T08:24:41.992Z,6.30
2019-05-03T08:27:14.794Z,5.70
2019-05-03T08:29:47.708Z,6.65
2019-05-03T08:32:26.354Z,9.15
2019-05-03T08:35:00.024Z,7.50
2019-05-03T08:37:34.459Z,8.43
2019-05-03T08:40:10.543Z,8.23
2019-05-03T08:42:44.456Z,6.53
2019-05-03T08:45:18.149Z,5.60
2019-05-03T08:47:50.938Z,6.35
2019-05-03T08:50:26.239Z,6.17
2019-05-03T08:53:00.804Z,6.92
2019-05-03T08:55:32.576Z,7.35
2019-05-03T08:58:06.459Z,8.30
2019-05-03T09:00:49.396Z,4.67
2019-05-03T09:03:21.290Z,5.58
2019-05-03T09:05:56.209Z,4.95
2019-05-03T09:08:26.695Z,5.90
2019-05-03T09:10:59.567Z,4.55
2019-05-03T12:21:51.788Z,5.65
2019-05-03T12:25:02.797Z,5.03
2019-05-03T12:27:55.901Z,5.67
2019-05-03T12:33:31.402Z,5.92
2019-05-03T12:36:05.498Z,7.62
2019-05-03T12:38:38.614Z,7.47
2019-05-03T12:41:14.991Z,6.00
2019-05-03T12:43:48.831Z,5.37
2019-05-03T12:53:18.736Z,5.62
2019-05-03T12:55:51.754Z,5.83
2019-05-03T12:58:25.952Z,5.22
2019-05-03T13:07:54.736Z,4.83
2019-05-03T13:10:28.884Z,5.42
2019-05-03T13:17:02.138Z,5.42
2019-05-03T13:19:45.178Z,5.00
2019-05-03T13:22:25.349Z,5.97
2019-05-03T13:25:25.766Z,5.33
2019-05-03T13:41:54.828Z,6.33
2019-05-03T13:52:34.465Z,7.47
2019-05-03T14:05:12.409Z,6.62
2019-05-03T14:07:44.708Z,7.03
2019-05-03T14:10:18.261Z,7.15
2019-05-03T14:13:14.834Z,6.72
2019-05-03T14:15:49.490Z,6.25
2019-05-03T14:18:36.902Z,6.03
2019-05-03T14:21:10.438Z,6.28
2019-05-03T14:24:16.613Z,6.70
2019-05-03T14:38:05.908Z,6.42
2019-05-03T14:40:37.866Z,6.70
2019-05-03T14:43:10.590Z,6.62
2019-05-03T14:45:44.449Z,6.83
2019-05-03T14:58:52.796Z,5.90
2019-05-03T15:01:26.988Z,6.58
2019-05-03T15:03:59.924Z,6.67
2019-05-03T15:06:35.267Z,7.30
2019-05-03T15:09:09.489Z,6.12
2019-05-03T15:11:45.289Z,6.80
2019-05-03T15:14:18.876Z,5.95
2019-05-03T15:16:51.405Z,6.55
2019-05-03T15:19:25.403Z,7.40
2019-05-03T15:21:59.251Z,6.47
2019-05-03T15:24:34.460Z,6.95
2019-05-03T15:27:07.683Z,7.30
2019-05-03T15:29:40.429Z,7.22
2019-05-03T15:32:15.338Z,6.87
2019-05-03T15:34:49.617Z,7.00
2019-05-03T15:37:25.393Z,7.17
2019-05-03T15:39:58.927Z,7.22
2019-05-03T15:42:35.746Z,7.28
2019-05-03T15:45:28.286Z,6.90
2019-05-03T15:48:04.471Z,7.70
2019-05-03T15:50:38.535Z,7.35
2019-05-03T15:53:15.147Z,7.40
2019-05-03T15:55:49.990Z,7.22
2019-05-03T15:58:24.665Z,7.65
2019-05-03T16:00:56.964Z,6.95
2019-05-03T16:03:30.674Z,7.15
2019-05-03T16:06:04.898Z,7.15
2019-05-03T16:08:38.373Z,7.22
2019-05-03T16:11:14.687Z,8.03
2019-05-03T16:13:46.824Z,7.08
2019-05-03T16:16:21.215Z,7.60
2019-05-03T16:18:53.868Z,8.50
2019-05-03T16:21:30.343Z,8.10
2019-05-03T16:24:05.066Z,8.20
2019-05-03T16:26:39.718Z,8.08
2019-05-03T16:29:15.778Z,7.65
2019-05-03T16:31:50.069Z,7.92
2019-05-03T16:34:22.897Z,6.92
2019-05-03T16:36:55.542Z,7.37
2019-05-03T16:39:29.305Z,7.50
2019-05-03T16:42:04.255Z,8.05
2019-05-03T16:44:37.762Z,8.03
2019-05-03T16:47:10.528Z,7.17
2019-05-03T16:49:44.654Z,7.37
2019-05-03T16:52:18.960Z,7.33
2019-05-03T16:54:54.716Z,7.05
2019-05-03T16:57:29.063Z,7.70
2019-05-03T17:00:05.670Z,6.90
2019-05-03T17:02:39.203Z,7.03
2019-05-03T17:05:17.507Z,6.60
2019-05-03T17:10:28.714Z,7.42
2019-05-03T17:13:05.390Z,7.08
2019-05-03T17:15:37.990Z,7.83
2019-05-03T17:18:10.739Z,7.72
2019-05-03T17:20:45.326Z,7.95
2019-05-03T17:23:21.306Z,7.62
2019-05-03T17:25:56.067Z,7.30
2019-05-03T17:28:28.485Z,7.22
2019-05-03T17:31:06.555Z,7.33
2019-05-03T17:33:50.754Z,6.60
2019-05-03T17:36:14.518Z,7.72
2019-05-03T17:38:49.240Z,7.67
2019-05-03T17:41:25.587Z,6.85
2019-05-03T17:43:59.526Z,7.15
2019-05-03T17:46:35.554Z,6.45
2019-05-03T17:49:09.707Z,6.60
2019-05-03T17:51:45.562Z,6.25
2019-05-03T17:54:37.337Z,7.03
2019-05-03T17:57:29.322Z,6.83
2019-05-03T18:00:05.803Z,7.08
2019-05-03T18:02:42.557Z,6.80
2019-05-03T18:05:34.577Z,6.25
2019-05-03T18:08:12.288Z,7.25
2019-05-03T18:10:47.537Z,6.72
2019-05-03T18:13:21.511Z,6.35
2019-05-03T18:15:55.515Z,6.37
2019-05-03T18:18:30.737Z,7.45
2019-05-03T18:21:04.804Z,6.90
2019-05-03T18:23:37.735Z,7.50
2019-05-03T18:26:11.396Z,7.03
2019-05-03T18:28:47.482Z,8.15
2019-05-03T18:31:20.252Z,7.12
2019-05-03T18:33:54.736Z,7.65
2019-05-03T18:36:28.685Z,6.92
2019-05-03T18:39:01.598Z,7.85
2019-05-03T18:41:35.137Z,7.17
2019-05-03T18:44:26.714Z,7.25
2019-05-03T18:47:05.678Z,7.65
2019-05-03T18:49:40.112Z,8.70
2019-05-03T18:52:16.081Z,9.95
2019-05-03T18:54:49.777Z,10.08
2019-05-03T18:57:22.585Z,10.10
2019-05-03T18:59:58.365Z,9.50
2019-05-03T19:02:33.996Z,9.05
2019-05-03T19:05:08.748Z,10.30
2019-05-03T19:07:46.990Z,9.98
2019-05-03T19:10:25.707Z,10.80
2019-05-03T19:12:59.476Z,8.85
2019-05-03T19:15:34.759Z,9.28
2019-05-03T19:18:09.761Z,8.75
2019-05-03T19:20:45.448Z,7.00
2019-05-03T19:23:18.968Z,5.92
2019-05-03T19:25:55.181Z,6.67
2019-05-03T19:28:29.116Z,8.00
2019-05-03T19:31:05.239Z,8.73
2019-05-03T19:33:38.155Z,9.28
2019-05-03T19:36:11.936Z,9.65
2019-05-03T19:38:45.636Z,8.93
2019-05-03T19:41:21.828Z,9.03
2019-05-03T19:43:55.820Z,9.83
2019-05-03T19:46:31.990Z,7.28
2019-05-03T19:49:07.176Z,6.75
2019-05-03T19:51:41.748Z,6.17
2019-05-03T19:54:16.103Z,5.75
2019-05-03T19:56:49.638Z,5.25
2019-05-03T19:59:40.468Z,5.60
2019-05-03T20:02:35.167Z,4.87
2019-05-03T20:05:28.111Z,4.65
2019-05-03T20:08:05.035Z,5.83
2019-05-03T20:10:36.867Z,5.45
2019-05-03T20:13:11.011Z,5.40
2019-05-03T20:15:46.448Z,6.10
2019-05-03T20:18:20.312Z,5.05
2019-05-03T20:20:55.315Z,6.45
2019-05-03T20:23:27.909Z,6.72
2019-05-03T20:26:00.714Z,6.25
2019-05-03T20:28:35.477Z,6.80
2019-05-03T20:31:08.999Z,6.00
2019-05-03T20:33:45.720Z,7.05
2019-05-03T20:36:18.620Z,7.92
2019-05-03T20:38:52.097Z,6.40
2019-05-03T20:41:27.523Z,5.95
2019-05-03T20:44:02.339Z,5.80
2019-05-03T20:46:55.031Z,5.60
2019-05-03T20:49:28.699Z,6.12
2019-05-03T20:52:02.481Z,6.05
2019-05-03T20:54:35.383Z,6.30
2019-05-03T20:57:09.806Z,5.92
2019-05-03T20:59:45.982Z,6.35
2019-05-03T21:02:19.150Z,6.92
2019-05-03T21:04:54.661Z,5.83
2019-05-03T21:07:27.346Z,6.72
2019-05-03T21:10:01.600Z,6.85
2019-05-03T21:12:34.678Z,6.87
2019-05-03T21:15:11.488Z,6.28
2019-05-03T21:18:04.755Z,6.47
2019-05-03T21:20:39.785Z,6.97
2019-05-03T21:23:14.759Z,6.83
2019-05-03T21:26:03.593Z,6.42
2019-05-03T21:28:25.138Z,7.28
2019-05-03T21:30:59.269Z,7.65
2019-05-03T21:33:31.905Z,7.42
2019-05-03T21:36:05.706Z,7.00
2019-05-03T21:38:40.812Z,7.37
2019-05-03T21:41:15.690Z,7.22
2019-05-03T21:43:50.414Z,7.12
2019-05-03T21:46:25.651Z,7.72
2019-05-03T21:49:00.785Z,6.55
2019-05-03T21:51:34.727Z,6.80
2019-05-03T21:54:08.755Z,7.45
2019-05-03T21:56:44.562Z,6.95
2019-05-03T21:59:17.706Z,6.80
2019-05-03T22:01:51.690Z,7.75
2019-05-03T22:04:25.356Z,6.45
2019-05-03T22:07:01.129Z,6.37
2019-05-03T22:09:36.479Z,6.60
2019-05-03T22:12:10.667Z,7.22
2019-05-03T22:14:45.618Z,6.78
2019-05-03T22:17:44.744Z,6.70
2019-05-03T22:20:26.781Z,7.30
2019-05-03T22:23:01.901Z,6.30
2019-05-03T22:25:35.795Z,6.85
2019-05-03T22:28:08.911Z,6.80
2019-05-03T22:30:45.372Z,6.83
2019-05-03T22:33:20.106Z,6.97
2019-05-03T22:36:07.944Z,7.87
2019-05-03T22:38:30.406Z,7.45
2019-05-03T22:41:05.375Z,7.20
2019-05-03T22:43:40.466Z,7.53
2019-05-03T22:46:14.644Z,7.05
2019-05-03T22:48:47.973Z,8.03
2019-05-03T22:51:24.347Z,9.88
2019-05-03T22:53:57.547Z,8.85
2019-05-03T22:56:32.134Z,7.42
2019-05-03T22:59:06.504Z,8.13
2019-05-03T23:01:40.616Z,8.98
2019-05-03T23:04:14.671Z,8.00
2019-05-03T23:06:48.196Z,7.87
2019-05-03T23:09:20.977Z,8.30
2019-05-03T23:11:56.959Z,7.72
2019-05-03T23:14:31.295Z,7.97
2019-05-03T23:17:06.799Z,8.00
2019-05-03T23:19:41.366Z,8.33
2019-05-03T23:22:19.167Z,7.75
2019-05-03T23:24:54.800Z,8.35
2019-05-03T23:27:27.528Z,8.00
2019-05-03T23:30:02.031Z,8.03
2019-05-03T23:32:35.966Z,8.28
2019-05-03T23:35:11.765Z,9.03
2019-05-03T23:37:45.684Z,8.63
2019-05-03T23:40:19.809Z,8.13
2019-05-03T23:42:54.457Z,8.13
2019-05-03T23:45:29.503Z,8.43
2019-05-03T23:48:04.670Z,9.13
2019-05-03T23:50:40.563Z,8.83
2019-05-03T23:53:15.294Z,9.40
2019-05-03T23:55:49.721Z,9.45
2019-05-03T23:58:24.725Z,8.75
